Time;durP1;ratioP1;P1;durP2;ratioP2;P2;SDS_P1;SDS_P2;PMS_P1;PMS_P2;Temp;Humidity;BMP_temperature;BMP_pressure;BME280_temperature;BME280_humidity;BME280_pressure;Samples;Min_cycle;Max_cycle;Signal;HPM_P1;HPM_P2
2023/10/03 00:00:09;;;;;;;4.25;2.50;;;;;;;;;;4369465;32;70337;-76
2023/10/03 00:02:56;;;;;;;4.53;2.85;;;;;;;;;;4368571;32;66084;-75
2023/10/03 00:05:46;;;;;;;4.40;2.50;;;;;;;;;;4368253;32;67868;-75
2023/10/03 00:08:34;;;;;;;4.40;2.62;;;;;;;;;;4368667;32;59928;-75
2023/10/03 00:11:22;;;;;;;4.40;2.60;;;;;;;;;;4365846;32;71846;-75
2023/10/03 00:14:22;;;;;;;5.60;2.70;;;;;;;;;;3849065;37;44013;-75
2023/10/03 00:17:09;;;;;;;4.97;2.47;;;;;;;;;;4389342;32;59483;-75
2023/10/03 00:19:55;;;;;;;;;;;;;;;;;;4375388;32;70208;-74
2023/10/03 00:22:42;;;;;;;4.85;2.50;;;;;;;;;;4386434;32;68849;-75
2023/10/03 00:25:27;;;;;;;6.80;2.60;;;;;;;;;;3872065;36;43191;-75
2023/10/03 00:28:17;;;;;;;4.25;2.47;;;;;;;;;;4407640;32;58658;-74
2023/10/03 00:31:11;;;;;;;4.55;2.42;;;;;;;;;;4416774;32;69272;-75
2023/10/03 00:34:17;;;;;;;2.95;2.30;;;;;;;;;;3845680;37;44004;-75
2023/10/03 00:37:07;;;;;;;4.37;2.87;;;;;;;;;;4397023;32;63385;-76
2023/10/03 00:39:54;;;;;;;3.12;2.35;;;;;;;;;;4408323;32;70095;-75
2023/10/03 00:42:41;;;;;;;5.32;3.05;;;;;;;;;;4396473;32;68943;-75
2023/10/03 00:45:32;;;;;;;5.78;2.95;;;;;;;;;;4383815;32;68430;-75
2023/10/03 00:48:21;;;;;;;4.43;2.62;;;;;;;;;;4395327;32;70911;-75
2023/10/03 00:51:07;;;;;;;4.65;2.90;;;;;;;;;;4395237;32;65776;-75
2023/10/03 00:53:56;;;;;;;;;;;;;;;;;;4390244;32;67839;-75
2023/10/03 00:56:43;;;;;;;4.03;3.05;;;;;;;;;;4390857;32;59759;-74
2023/10/03 00:59:29;;;;;;;5.78;2.95;;;;;;;;;;4380160;32;72686;-73
2023/10/03 01:02:21;;;;;;;4.87;2.97;;;;;;;;;;4390059;32;65580;-75
2023/10/03 01:05:16;;;;;;;5.93;3.20;;;;;;;;;;4379692;32;67427;-74
2023/10/03 01:08:04;;;;;;;6.10;3.08;;;;;;;;;;4379715;32;60042;-75
2023/10/03 01:10:51;;;;;;;4.72;2.90;;;;;;;;;;4400445;32;70461;-74
2023/10/03 01:13:38;;;;;;;4.28;2.70;;;;;;;;;;4389775;32;68237;-75
2023/10/03 01:16:36;;;;;;;6.53;2.75;;;;;;;;;;4385254;32;66744;-76
2023/10/03 01:19:29;;;;;;;4.82;3.00;;;;;;;;;;4365715;32;70564;-75
2023/10/03 01:22:16;;;;;;;4.57;2.78;;;;;;;;;;4376382;32;65540;-74
2023/10/03 01:25:11;;;;;;;4.45;2.72;;;;;;;;;;4364311;32;68493;-75
2023/10/03 01:27:58;;;;;;;5.35;2.90;;;;;;;;;;4385235;32;67659;-75
2023/10/03 01:30:46;;;;;;;;;;;;;;;;;;4374447;32;69724;-75
2023/10/03 01:33:33;;;;;;;4.90;3.47;;;;;;;;;;4375712;32;65921;-75
2023/10/03 01:36:20;;;;;;;5.18;2.78;;;;;;;;;;4363410;32;67088;-75
2023/10/03 01:39:07;;;;;;;5.35;2.85;;;;;;;;;;4376098;32;59877;-75
2023/10/03 01:41:53;;;;;;;5.15;2.80;;;;;;;;;;4374429;32;69440;-75
2023/10/03 01:44:40;;;;;;;5.78;2.85;;;;;;;;;;4357386;32;69643;-75
2023/10/03 01:47:26;;;;;;;6.95;3.40;;;;;;;;;;4353936;32;67339;-74
2023/10/03 01:50:14;;;;;;;9.20;3.53;;;;;;;;;;4353452;32;59812;-75
2023/10/03 01:53:01;;;;;;;10.75;4.62;;;;;;;;;;4342397;32;69898;-75
2023/10/03 01:55:49;;;;;;;9.25;4.18;;;;;;;;;;4353828;32;69111;-75
2023/10/03 01:58:35;;;;;;;7.72;3.75;;;;;;;;;;4354307;32;67680;-75
2023/10/03 02:01:23;;;;;;;8.10;4.00;;;;;;;;;;3843991;37;43160;-74
2023/10/03 02:04:10;;;;;;;10.18;4.20;;;;;;;;;;4384410;32;58415;-74
2023/10/03 02:06:56;;;;;;;8.45;3.97;;;;;;;;;;4383404;32;71193;-73
2023/10/03 02:09:43;;;;;;;5.05;3.53;;;;;;;;;;4394403;32;68992;-75
2023/10/03 02:12:30;;;;;;;6.62;3.40;;;;;;;;;;4406965;32;67244;-75
2023/10/03 02:15:22;;;;;;;6.60;3.47;;;;;;;;;;4393698;32;72640;-75
2023/10/03 02:18:14;;;;;;;6.72;3.95;;;;;;;;;;4380061;32;65950;-75
2023/10/03 02:21:03;;;;;;;7.07;3.90;;;;;;;;;;4380010;32;67215;-75
2023/10/03 02:23:50;;;;;;;12.00;3.97;;;;;;;;;;4390543;32;58817;-75
2023/10/03 02:26:37;;;;;;;;;;;;;;;;;;4379891;32;71873;-74
2023/10/03 02:29:23;;;;;;;7.40;3.85;;;;;;;;;;4369613;32;67119;-76
2023/10/03 02:32:11;;;;;;;;;;;;;;;;;;4379698;32;68136;-74
2023/10/03 02:34:58;;;;;;;6.90;3.87;;;;;;;;;;4379946;32;59236;-74
2023/10/03 02:37:47;;;;;;;8.40;4.18;;;;;;;;;;4379282;32;70626;-75
2023/10/03 02:40:36;;;;;;;8.63;4.37;;;;;;;;;;4391887;32;70670;-75
2023/10/03 02:43:29;;;;;;;7.15;4.07;;;;;;;;;;4379635;32;67896;-75
2023/10/03 02:46:16;;;;;;;7.60;4.75;;;;;;;;;;4381248;32;70937;-74
2023/10/03 02:49:03;;;;;;;9.32;5.15;;;;;;;;;;4379572;32;67388;-75
2023/10/03 02:51:49;;;;;;;13.62;5.32;;;;;;;;;;4389862;32;68023;-76
2023/10/03 02:54:36;;;;;;;9.45;4.62;;;;;;;;;;4378893;32;66513;-75
2023/10/03 02:57:24;;;;;;;8.32;4.68;;;;;;;;;;4368295;32;70272;-75
2023/10/03 03:00:15;;;;;;;10.68;5.30;;;;;;;;;;4378852;32;64844;-74
2023/10/03 03:03:06;;;;;;;9.20;5.05;;;;;;;;;;4368272;32;68588;-74
2023/10/03 03:05:53;;;;;;;11.45;4.90;;;;;;;;;;4379350;32;59578;-75
2023/10/03 03:08:40;;;;;;;9.60;4.32;;;;;;;;;;4389628;32;70631;-75
2023/10/03 03:11:28;;;;;;;7.25;4.60;;;;;;;;;;4366775;32;69731;-75
2023/10/03 03:14:15;;;;;;;10.07;4.87;;;;;;;;;;4369048;32;67634;-74
2023/10/03 03:17:06;;;;;;;12.80;5.78;;;;;;;;;;4368732;32;59032;-75
2023/10/03 03:19:55;;;;;;;8.57;5.10;;;;;;;;;;4368688;32;71848;-73
2023/10/03 03:22:41;;;;;;;8.63;5.40;;;;;;;;;;4358412;32;68958;-75
2023/10/03 03:25:38;;;;;;;11.02;6.07;;;;;;;;;;4368713;32;66732;-76
2023/10/03 03:28:24;;;;;;;17.05;6.20;;;;;;;;;;4368259;32;72722;-74
2023/10/03 03:31:46;;;;;;;9.68;5.07;;;;;;;;;;4358153;32;66298;-74
2023/10/03 03:34:26;;;;;;;9.95;5.78;;;;;;;;;;4370582;32;68677;-74
2023/10/03 03:37:21;;;;;;;10.75;5.28;;;;;;;;;;4368761;32;60228;-75
2023/10/03 03:40:24;;;;;;;10.50;5.90;;;;;;;;;;4369249;32;70777;-75
2023/10/03 03:43:12;;;;;;;8.07;5.30;;;;;;;;;;4368138;32;66953;-75
2023/10/03 03:45:59;;;;;;;11.05;5.03;;;;;;;;;;4347251;32;67689;-75
2023/10/03 03:48:46;;;;;;;8.90;5.57;;;;;;;;;;4369242;32;60266;-75
2023/10/03 03:51:33;;;;;;;8.70;5.32;;;;;;;;;;4379406;32;70659;-76
2023/10/03 03:54:20;;;;;;;;;;;;;;;;;;4368552;32;70377;-75
2023/10/03 03:57:07;;;;;;;8.38;5.62;;;;;;;;;;4368346;32;68412;-74
2023/10/03 03:59:53;;;;;;;10.07;5.15;;;;;;;;;;4368496;32;72732;-76
2023/10/03 04:02:40;;;;;;;;;;;;;;;;;;4357628;32;67130;-75
2023/10/03 04:05:31;;;;;;;8.57;4.83;;;;;;;;;;4357646;32;65529;-75
2023/10/03 04:08:18;;;;;;;8.93;5.62;;;;;;;;;;4368597;32;66747;-74
2023/10/03 04:11:07;;;;;;;8.80;4.90;;;;;;;;;;4369514;32;71986;-75
2023/10/03 04:13:56;;;;;;;8.07;5.43;;;;;;;;;;4368157;32;65722;-75
2023/10/03 04:16:43;;;;;;;9.43;5.18;;;;;;;;;;4366374;32;67081;-76
2023/10/03 04:19:29;;;;;;;8.82;5.37;;;;;;;;;;4382654;32;57499;-75
2023/10/03 04:22:16;;;;;;;8.40;5.30;;;;;;;;;;4382780;32;70341;-75
2023/10/03 04:25:04;;;;;;;8.70;5.20;;;;;;;;;;4371432;32;70354;-75
2023/10/03 04:27:53;;;;;;;8.05;5.03;;;;;;;;;;4395139;32;67612;-75
2023/10/03 04:30:41;;;;;;;9.35;5.43;;;;;;;;;;4382792;32;60453;-75
2023/10/03 04:33:30;;;;;;;11.60;5.35;;;;;;;;;;4393269;32;71779;-75
2023/10/03 04:36:24;;;;;;;8.75;5.03;;;;;;;;;;4393856;32;69357;-75
2023/10/03 04:39:11;;;;;;;11.18;4.95;;;;;;;;;;4383651;32;68242;-75
2023/10/03 04:41:58;;;;;;;11.18;5.35;;;;;;;;;;4382967;32;68779;-75
2023/10/03 04:44:44;;;;;;;8.00;4.97;;;;;;;;;;4395067;32;65725;-75
2023/10/03 04:47:32;;;;;;;9.70;4.00;;;;;;;;;;4371938;32;66767;-75
2023/10/03 04:50:25;;;;;;;8.38;4.40;;;;;;;;;;4394041;32;60674;-75
2023/10/03 04:53:15;;;;;;;8.20;3.65;;;;;;;;;;4372489;32;69456;-75
2023/10/03 04:56:03;;;;;;;11.15;4.65;;;;;;;;;;4383631;32;65022;-74
2023/10/03 04:58:52;;;;;;;7.90;4.35;;;;;;;;;;4371864;32;68859;-75
2023/10/03 05:01:42;;;;;;;6.45;3.72;;;;;;;;;;4393793;32;58626;-75
2023/10/03 05:04:28;;;;;;;5.87;3.33;;;;;;;;;;4360953;32;71243;-74
2023/10/03 05:07:15;;;;;;;;;;;;;;;;;;4383196;32;68404;-74
2023/10/03 05:10:03;;;;;;;6.53;3.33;;;;;;;;;;4382245;32;69096;-74
2023/10/03 05:12:53;;;;;;;6.03;3.42;;;;;;;;;;4377899;32;71566;-75
2023/10/03 05:15:39;;;;;;;7.97;3.40;;;;;;;;;;4356104;32;67409;-75
2023/10/03 05:18:26;;;;;;;7.85;3.17;;;;;;;;;;4346089;32;69214;-75
2023/10/03 05:21:13;;;;;;;6.25;3.17;;;;;;;;;;4356596;32;69127;-75
2023/10/03 05:24:00;;;;;;;6.28;3.90;;;;;;;;;;4366933;32;70152;-75
2023/10/03 05:26:48;;;;;;;;;;;;;;;;;;4377933;32;67150;-74
2023/10/03 05:29:36;;;;;;;5.50;3.30;;;;;;;;;;4378067;32;66721;-76
2023/10/03 05:32:24;;;;;;;4.00;3.17;;;;;;;;;;4378130;32;59840;-74
2023/10/03 05:35:12;;;;;;;5.87;3.08;;;;;;;;;;4377222;32;69409;-74
2023/10/03 05:37:59;;;;;;;4.65;3.17;;;;;;;;;;4377418;32;70883;-75
2023/10/03 05:40:47;;;;;;;4.65;3.17;;;;;;;;;;4356525;32;69085;-74
2023/10/03 05:43:33;;;;;;;4.57;2.95;;;;;;;;;;4367224;32;71827;-74
2023/10/03 05:46:19;;;;;;;5.05;2.83;;;;;;;;;;4366984;32;69432;-74
2023/10/03 05:49:06;;;;;;;5.60;2.92;;;;;;;;;;4367043;32;68996;-75
2023/10/03 05:54:32;;;;;;;7.80;3.20;;;;;;;;;;3825836;37;43664;-76
2023/10/03 05:57:19;;;;;;;7.10;3.15;;;;;;;;;;4390686;32;58952;-75
2023/10/03 06:00:09;;;;;;;;;;;;;;;;;;4380006;32;70216;-74
2023/10/03 06:02:56;;;;;;;5.70;3.03;;;;;;;;;;4379953;32;69609;-75
2023/10/03 06:05:43;;;;;;;3.55;2.58;;;;;;;;;;4368335;32;68266;-74
2023/10/03 06:08:32;;;;;;;;;;;;;;;;;;4379878;32;71618;-73
2023/10/03 06:11:19;;;;;;;5.57;2.80;;;;;;;;;;4382931;32;64999;-74
2023/10/03 06:14:09;;;;;;;7.30;2.67;;;;;;;;;;4364340;32;66023;-74
2023/10/03 06:16:55;;;;;;;6.00;3.37;;;;;;;;;;4374937;32;59194;-73
2023/10/03 06:19:42;;;;;;;3.85;2.65;;;;;;;;;;4364067;32;71917;-75
2023/10/03 06:22:28;;;;;;;4.53;2.72;;;;;;;;;;4364523;32;66229;-75
2023/10/03 06:25:15;;;;;;;5.68;3.05;;;;;;;;;;4353323;32;67666;-75
2023/10/03 06:28:02;;;;;;;18.35;4.20;;;;;;;;;;4364469;32;59594;-74
2023/10/03 06:30:52;;;;;;;7.72;3.03;;;;;;;;;;4374843;32;69725;-75
2023/10/03 06:33:45;;;;;;;4.90;2.87;;;;;;;;;;4375774;32;68975;-75
2023/10/03 06:36:33;;;;;;;7.45;2.70;;;;;;;;;;4363887;32;69196;-75
2023/10/03 06:39:19;;;;;;;6.10;2.72;;;;;;;;;;4353164;32;70944;-76
2023/10/03 06:42:06;;;;;;;;;;;;;;;;;;4364644;32;64899;-75
2023/10/03 06:44:52;;;;;;;3.92;2.35;;;;;;;;;;4365969;32;70848;-75
2023/10/03 06:47:39;;;;;;;2.58;2.05;;;;;;;;;;4376046;32;67005;-74
2023/10/03 06:50:25;;;;;;;;;;;;;;;;;;4353645;32;71777;-74
2023/10/03 06:53:18;;;;;;;5.20;2.37;;;;;;;;;;4353006;32;65880;-76
2023/10/03 06:56:04;;;;;;;4.53;2.60;;;;;;;;;;4363667;32;67547;-75
2023/10/03 06:58:51;;;;;;;;;;;;;;;;;;4375269;32;60200;-74
2023/10/03 07:01:38;;;;;;;4.30;2.53;;;;;;;;;;4375925;32;71607;-76
2023/10/03 07:04:25;;;;;;;9.13;2.78;;;;;;;;;;4348839;32;69318;-76
2023/10/03 07:07:12;;;;;;;3.60;2.53;;;;;;;;;;4343019;32;66710;-75
2023/10/03 07:09:58;;;;;;;4.10;2.40;;;;;;;;;;4343346;32;59805;-75
2023/10/03 07:12:45;;;;;;;3.85;2.67;;;;;;;;;;4353023;32;71132;-75
2023/10/03 07:15:33;;;;;;;4.37;2.80;;;;;;;;;;4342317;32;71408;-74
2023/10/03 07:18:20;;;;;;;3.87;2.50;;;;;;;;;;4353804;32;67758;-75
2023/10/03 07:21:07;;;;;;;4.68;2.40;;;;;;;;;;4365727;32;72294;-76
2023/10/03 07:23:54;;;;;;;5.03;2.45;;;;;;;;;;4343186;32;65713;-76
2023/10/03 07:26:42;;;;;;;6.28;2.75;;;;;;;;;;4364324;32;67496;-75
2023/10/03 07:29:28;;;;;;;4.55;2.45;;;;;;;;;;4364714;32;60588;-74
2023/10/03 07:32:17;;;;;;;4.90;2.80;;;;;;;;;;4363833;32;70717;-75
2023/10/03 07:35:03;;;;;;;;;;;;;;;;;;4364847;32;65353;-74
2023/10/03 07:37:51;;;;;;;4.03;2.72;;;;;;;;;;4365601;32;67491;-74
2023/10/03 07:40:38;;;;;;;4.28;2.47;;;;;;;;;;4353109;32;60001;-74
2023/10/03 07:43:26;;;;;;;6.87;2.78;;;;;;;;;;4353246;32;71385;-73
2023/10/03 07:46:17;;;;;;;4.40;2.80;;;;;;;;;;4365066;32;69711;-73
2023/10/03 07:49:05;;;;;;;3.72;2.30;;;;;;;;;;4344668;32;67450;-75
2023/10/03 07:51:59;;;;;;;5.90;2.37;;;;;;;;;;4352786;32;71625;-74
2023/10/03 07:54:54;;;;;;;4.40;2.42;;;;;;;;;;4352889;32;64847;-75
2023/10/03 07:57:41;;;;;;;3.60;2.12;;;;;;;;;;4364636;32;66360;-74
2023/10/03 08:00:28;;;;;;;4.30;2.40;;;;;;;;;;4354368;32;65378;-74
2023/10/03 08:03:15;;;;;;;5.00;2.67;;;;;;;;;;4353080;32;71525;-73
2023/10/03 08:06:03;;;;;;;3.67;2.50;;;;;;;;;;4363468;32;65917;-73
2023/10/03 08:08:53;;;;;;;4.40;2.78;;;;;;;;;;4363577;32;66678;-73
2023/10/03 08:11:40;;;;;;;3.10;2.10;;;;;;;;;;4362464;32;61365;-74
2023/10/03 08:14:26;;;;;;;;;;;;;;;;;;4368253;32;70434;-75
2023/10/03 08:17:12;;;;;;;5.35;2.65;;;;;;;;;;4354581;32;69922;-74
2023/10/03 08:20:05;;;;;;;4.43;2.25;;;;;;;;;;4364614;32;66844;-74
2023/10/03 08:22:52;;;;;;;4.05;2.20;;;;;;;;;;4354011;32;60112;-74
2023/10/03 08:25:41;;;;;;;5.32;2.55;;;;;;;;;;4342145;32;70898;-73
2023/10/03 08:28:29;;;;;;;5.03;2.17;;;;;;;;;;4352850;32;68477;-74
2023/10/03 08:31:15;;;;;;;3.95;2.35;;;;;;;;;;4352689;32;66081;-74
2023/10/03 08:34:02;;;;;;;3.53;2.12;;;;;;;;;;4352621;32;71511;-74
2023/10/03 08:36:53;;;;;;;3.92;2.15;;;;;;;;;;4363226;32;64495;-73
2023/10/03 08:39:40;;;;;;;5.22;2.20;;;;;;;;;;4342764;32;66615;-74
2023/10/03 08:42:35;;;;;;;2.53;1.60;;;;;;;;;;4363394;32;60075;-74
2023/10/03 08:45:23;;;;;;;2.53;1.83;;;;;;;;;;4342369;32;71120;-75
2023/10/03 08:48:12;;;;;;;3.05;1.90;;;;;;;;;;4342430;32;67561;-73
2023/10/03 08:51:01;;;;;;;;;;;;;;;;;;4363729;32;67243;-75
2023/10/03 08:53:49;;;;;;;3.40;1.65;;;;;;;;;;4363010;32;59428;-74
2023/10/03 08:56:36;;;;;;;3.97;2.00;;;;;;;;;;4352367;32;70525;-74
2023/10/03 08:59:23;;;;;;;2.15;1.65;;;;;;;;;;4341851;32;69621;-73
2023/10/03 09:02:14;;;;;;;2.03;1.80;;;;;;;;;;4352443;32;67657;-74
2023/10/03 09:05:15;;;;;;;2.22;1.77;;;;;;;;;;4352073;32;73590;-72
2023/10/03 09:08:08;;;;;;;4.43;1.77;;;;;;;;;;4353813;32;66475;-73
2023/10/03 09:10:55;;;;;;;3.05;2.08;;;;;;;;;;4367936;32;67576;-73
2023/10/03 09:13:45;;;;;;;3.47;1.60;;;;;;;;;;4366999;32;68034;-73
2023/10/03 09:16:41;;;;;;;3.25;1.55;;;;;;;;;;4369785;32;70835;-73
2023/10/03 09:19:44;;;;;;;4.50;1.90;;;;;;;;;;4351921;32;67058;-73
2023/10/03 09:22:31;;;;;;;3.10;1.95;;;;;;;;;;4340812;32;65889;-73
2023/10/03 09:25:21;;;;;;;2.80;1.60;;;;;;;;;;4352302;32;58473;-73
2023/10/03 09:28:12;;;;;;;3.97;1.87;;;;;;;;;;4352036;32;69312;-73
2023/10/03 09:31:01;;;;;;;2.17;1.62;;;;;;;;;;4362542;32;69400;-73
2023/10/03 09:33:49;;;;;;;3.72;1.90;;;;;;;;;;4351959;32;68317;-72
2023/10/03 09:36:37;;;;;;;2.50;1.83;;;;;;;;;;4352455;32;70958;-73
2023/10/03 09:39:26;;;;;;;2.58;1.65;;;;;;;;;;4351967;32;70572;-73
2023/10/03 09:42:16;;;;;;;3.78;1.83;;;;;;;;;;4340737;32;70289;-73
2023/10/03 09:45:06;;;;;;;2.58;2.03;;;;;;;;;;4361861;32;67289;-73
2023/10/03 09:47:58;;;;;;;3.55;1.67;;;;;;;;;;4362119;32;70919;-73
2023/10/03 09:50:53;;;;;;;3.37;2.35;;;;;;;;;;4351516;32;66768;-73
2023/10/03 09:53:39;;;;;;;2.55;1.90;;;;;;;;;;4351213;32;68567;-73
2023/10/03 09:56:30;;;;;;;4.47;2.87;;;;;;;;;;4362614;32;60240;-72
2023/10/03 09:59:18;;;;;;;4.55;2.92;;;;;;;;;;4351663;32;69170;-73
2023/10/03 10:02:05;;;;;;;8.80;3.83;;;;;;;;;;4351586;32;67983;-72
2023/10/03 10:04:53;;;;;;;5.03;2.83;;;;;;;;;;4362520;32;67662;-73
2023/10/03 10:07:50;;;;;;;;;;;;;;;;;;4351588;32;61508;-73
2023/10/03 10:10:37;;;;;;;7.32;3.87;;;;;;;;;;4343824;32;69851;-73
2023/10/03 10:13:24;;;;;;;9.23;4.00;;;;;;;;;;4366607;32;68866;-72
2023/10/03 10:18:58;;;;;;;5.62;3.58;;;;;;;;;;4378291;32;70585;-73
2023/10/03 10:21:55;;;;;;;5.57;3.33;;;;;;;;;;4377503;32;66172;-73
2023/10/03 10:24:42;;;;;;;6.57;3.60;;;;;;;;;;4356210;32;66643;-74
2023/10/03 10:27:30;;;;;;;5.40;2.90;;;;;;;;;;4366011;32;60483;-73
2023/10/03 10:30:16;;;;;;;5.60;3.70;;;;;;;;;;4355905;32;71465;-74
2023/10/03 10:33:18;;;;;;;;;;;;;;;;;;4367206;32;65505;-72
2023/10/03 10:36:09;;;;;;;6.68;4.03;;;;;;;;;;4377310;32;67349;-73
2023/10/03 10:38:56;;;;;;;6.93;4.20;;;;;;;;;;4367229;32;59139;-73
2023/10/03 10:41:43;;;;;;;9.20;4.87;;;;;;;;;;4369080;32;70847;-73
2023/10/03 10:44:31;;;;;;;7.82;4.32;;;;;;;;;;4368839;32;69430;-72
2023/10/03 10:47:20;;;;;;;8.15;4.97;;;;;;;;;;4358585;32;67694;-72
2023/10/03 10:50:08;;;;;;;12.32;5.95;;;;;;;;;;4368488;32;73263;-73
2023/10/03 10:53:02;;;;;;;9.75;6.20;;;;;;;;;;4378897;32;70721;-73
2023/10/03 10:55:50;;;;;;;12.30;6.32;;;;;;;;;;4368578;32;69512;-73
2023/10/03 10:59:10;;;;;;;9.90;6.72;;;;;;;;;;4369250;32;68038;-74
2023/10/03 11:01:58;;;;;;;9.07;5.70;;;;;;;;;;4350954;32;70319;-73
2023/10/03 11:04:52;;;;;;;9.80;5.97;;;;;;;;;;4373674;32;66032;-72
2023/10/03 11:07:42;;;;;;;8.75;5.78;;;;;;;;;;4368498;32;66062;-73
2023/10/03 11:10:29;;;;;;;11.02;6.03;;;;;;;;;;4357897;32;60622;-73
2023/10/03 11:13:16;;;;;;;;;;;;;;;;;;4357712;32;69608;-72
2023/10/03 11:16:04;;;;;;;9.68;6.00;;;;;;;;;;4378953;32;68908;-73
2023/10/03 11:18:52;;;;;;;8.77;5.18;;;;;;;;;;4368120;32;68201;-73
2023/10/03 11:21:40;;;;;;;12.13;6.47;;;;;;;;;;4368742;32;60422;-73
2023/10/03 11:24:28;;;;;;;11.27;6.80;;;;;;;;;;4380126;32;69523;-73
2023/10/03 11:27:29;;;;;;;6.62;3.85;;;;;;;;;;4368139;32;67906;-73
2023/10/03 11:30:19;;;;;;;12.05;6.87;;;;;;;;;;4357967;32;66761;-74
2023/10/03 11:33:05;;;;;;;12.98;7.40;;;;;;;;;;4367394;32;70511;-74
2023/10/03 11:35:53;;;;;;;15.98;7.87;;;;;;;;;;4368308;32;65716;-73
2023/10/03 11:38:50;;;;;;;10.13;5.93;;;;;;;;;;4368169;32;67695;-73
2023/10/03 11:41:44;;;;;;;12.70;6.85;;;;;;;;;;4368480;32;60326;-73
2023/10/03 11:44:38;;;;;;;12.55;7.82;;;;;;;;;;4358588;32;71209;-73
2023/10/03 11:47:25;;;;;;;13.00;7.72;;;;;;;;;;4378576;32;67025;-73
2023/10/03 11:50:12;;;;;;;9.35;6.03;;;;;;;;;;4367957;32;67756;-74
2023/10/03 11:53:00;;;;;;;11.30;6.82;;;;;;;;;;4368628;32;59501;-72
2023/10/03 11:55:49;;;;;;;16.90;8.02;;;;;;;;;;4368171;32;68341;-73
2023/10/03 11:58:36;;;;;;;13.32;7.65;;;;;;;;;;4357577;32;69556;-73
2023/10/03 12:01:23;;;;;;;13.07;8.02;;;;;;;;;;4367333;32;66721;-73
2023/10/03 12:04:11;;;;;;;12.60;6.55;;;;;;;;;;4378546;32;71817;-72
2023/10/03 12:06:59;;;;;;;15.82;7.85;;;;;;;;;;4346651;32;64321;-73
2023/10/03 12:09:46;;;;;;;11.43;6.25;;;;;;;;;;4369025;32;69931;-73
2023/10/03 12:12:34;;;;;;;10.43;6.12;;;;;;;;;;4378621;32;67861;-74
2023/10/03 12:15:23;;;;;;;15.88;8.98;;;;;;;;;;4367158;32;71695;-74
2023/10/03 12:18:10;;;;;;;9.88;5.80;;;;;;;;;;4368040;32;65060;-73
2023/10/03 12:20:57;;;;;;;11.50;7.32;;;;;;;;;;4357390;32;68015;-72
2023/10/03 12:23:45;;;;;;;12.35;8.18;;;;;;;;;;4346458;32;58123;-74
2023/10/03 12:26:31;;;;;;;13.02;8.00;;;;;;;;;;4367313;32;71717;-73
2023/10/03 12:29:18;;;;;;;12.07;7.65;;;;;;;;;;4346088;32;69028;-73
2023/10/03 12:32:06;;;;;;;11.60;7.15;;;;;;;;;;4367774;32;67719;-73
2023/10/03 12:34:52;;;;;;;13.65;8.20;;;;;;;;;;4356465;32;61173;-73
2023/10/03 12:37:40;;;;;;;12.55;7.47;;;;;;;;;;4379453;32;70431;-73
2023/10/03 12:40:27;;;;;;;11.50;7.07;;;;;;;;;;4356308;32;68003;-73
2023/10/03 12:43:14;;;;;;;13.95;8.32;;;;;;;;;;4367514;32;67825;-72
2023/10/03 12:46:01;;;;;;;;;;;;;;;;;;4367699;32;72002;-73
2023/10/03 12:48:48;;;;;;;15.57;8.00;;;;;;;;;;4356913;32;65607;-73
2023/10/03 12:51:34;;;;;;;12.95;7.55;;;;;;;;;;4366970;32;69039;-73
2023/10/03 12:54:23;;;;;;;;;;;;;;;;;;4367486;32;59721;-73
2023/10/03 12:57:09;;;;;;;13.93;7.80;;;;;;;;;;4356401;32;69569;-72
2023/10/03 12:59:57;;;;;;;13.55;7.00;;;;;;;;;;4367066;32;66339;-74
2023/10/03 13:02:44;;;;;;;14.00;7.12;;;;;;;;;;4366774;32;68125;-73
2023/10/03 13:05:34;;;;;;;12.95;7.20;;;;;;;;;;4357032;32;59286;-73
2023/10/03 13:08:21;;;;;;;11.52;6.65;;;;;;;;;;4367609;32;70489;-73
2023/10/03 13:11:08;;;;;;;12.52;7.50;;;;;;;;;;4372766;32;69301;-74
2023/10/03 13:13:54;;;;;;;12.43;6.80;;;;;;;;;;4362776;32;67774;-74
2023/10/03 13:16:41;;;;;;;10.32;6.75;;;;;;;;;;4339408;32;72360;-73
2023/10/03 13:19:31;;;;;;;17.25;7.30;;;;;;;;;;4367054;32;64087;-73
2023/10/03 13:22:18;;;;;;;13.00;7.72;;;;;;;;;;4356656;32;69286;-72
2023/10/03 13:25:05;;;;;;;14.13;7.40;;;;;;;;;;4355932;32;67598;-74
2023/10/03 13:27:53;;;;;;;14.70;7.60;;;;;;;;;;4355655;32;72028;-72
2023/10/03 13:30:39;;;;;;;15.30;9.07;;;;;;;;;;4366566;32;67244;-73
2023/10/03 13:33:24;;;;;;;11.95;7.53;;;;;;;;;;3843987;37;43975;-73
2023/10/03 13:36:12;;;;;;;15.50;9.02;;;;;;;;;;4407137;32;59363;-72
2023/10/03 13:38:59;;;;;;;13.85;7.72;;;;;;;;;;4394955;32;70297;-73
2023/10/03 13:41:47;;;;;;;12.77;6.72;;;;;;;;;;4395277;32;69142;-72
2023/10/03 13:44:33;;;;;;;6.30;3.60;;;;;;;;;;4383616;32;68593;-74
2023/10/03 13:47:20;;;;;;;9.60;5.45;;;;;;;;;;4383621;32;70135;-72
2023/10/03 13:50:12;;;;;;;8.20;4.47;;;;;;;;;;4405628;32;65044;-74
2023/10/03 13:52:58;;;;;;;11.48;5.30;;;;;;;;;;4406253;32;67046;-74
2023/10/03 13:55:45;;;;;;;7.70;4.57;;;;;;;;;;4406436;32;60069;-73
2023/10/03 13:58:32;;;;;;;12.05;5.93;;;;;;;;;;4394067;32;72920;-73
2023/10/03 14:01:19;;;;;;;;;;;;;;;;;;4405484;32;65787;-72
2023/10/03 14:06:03;;;;;;;10.43;4.95;;;;;;;;;;3843873;37;43703;-73
2023/10/03 14:08:51;;;;;;;8.23;3.65;;;;;;;;;;4405447;32;60695;-74
2023/10/03 14:11:40;;;;;;;9.88;4.18;;;;;;;;;;4384699;32;70726;-72
2023/10/03 14:14:27;;;;;;;6.50;3.87;;;;;;;;;;4379254;32;70026;-73
2023/10/03 14:17:13;;;;;;;10.07;5.55;;;;;;;;;;4402599;32;67313;-73
2023/10/03 14:20:00;;;;;;;8.07;4.12;;;;;;;;;;4383891;32;71546;-73
2023/10/03 14:22:47;;;;;;;10.07;4.78;;;;;;;;;;4405575;32;66266;-73
2023/10/03 14:25:34;;;;;;;;;;;;;;;;;;4407273;32;67402;-72
2023/10/03 14:28:20;;;;;;;10.45;4.40;;;;;;;;;;4383854;32;59286;-73
2023/10/03 14:31:09;;;;;;;9.10;4.95;;;;;;;;;;4394122;32;71930;-72
2023/10/03 14:33:56;;;;;;;8.30;4.00;;;;;;;;;;4384241;32;67502;-73
2023/10/03 14:36:44;;;;;;;6.85;3.90;;;;;;;;;;4383257;32;67715;-73
2023/10/03 14:39:32;;;;;;;6.43;3.65;;;;;;;;;;4407325;32;59092;-73
2023/10/03 14:42:19;;;;;;;6.78;3.83;;;;;;;;;;4405279;32;70411;-72
2023/10/03 14:47:50;;;;;;;6.10;3.20;;;;;;;;;;3865319;36;43688;-74
2023/10/03 14:50:39;;;;;;;6.60;3.15;;;;;;;;;;4397171;32;60872;-72
2023/10/03 14:53:28;;;;;;;6.57;3.97;;;;;;;;;;4422175;32;69522;-73
2023/10/03 14:56:13;;;;;;;9.35;4.15;;;;;;;;;;3843868;37;44034;-73
2023/10/03 14:59:00;;;;;;;7.93;5.10;;;;;;;;;;4395396;32;59816;-73
2023/10/03 15:01:46;;;;;;;10.35;3.37;;;;;;;;;;4405459;32;69339;-73
2023/10/03 15:04:33;;;;;;;5.70;3.05;;;;;;;;;;4394618;32;68906;-72
2023/10/03 15:07:20;;;;;;;7.20;3.92;;;;;;;;;;4373152;32;66994;-75
2023/10/03 15:10:10;;;;;;;8.85;4.03;;;;;;;;;;4405421;32;71625;-73
2023/10/03 15:12:58;;;;;;;9.25;4.30;;;;;;;;;;4369406;32;65742;-73
2023/10/03 15:15:46;;;;;;;5.37;3.05;;;;;;;;;;4393135;32;67017;-72
2023/10/03 15:18:33;;;;;;;7.15;3.92;;;;;;;;;;4383663;32;61465;-73
2023/10/03 15:21:23;;;;;;;7.25;3.80;;;;;;;;;;4384090;32;71210;-73
2023/10/03 15:24:14;;;;;;;9.98;3.72;;;;;;;;;;4384791;32;67293;-73
2023/10/03 15:27:01;;;;;;;8.88;4.35;;;;;;;;;;4384258;32;66800;-73
2023/10/03 15:29:48;;;;;;;8.43;3.58;;;;;;;;;;4394400;32;60693;-73
2023/10/03 15:32:35;;;;;;;6.75;3.42;;;;;;;;;;4405464;32;70421;-73
2023/10/03 15:35:21;;;;;;;6.47;3.85;;;;;;;;;;4394749;32;70526;-74
2023/10/03 15:38:09;;;;;;;9.43;3.62;;;;;;;;;;4383281;32;68854;-73
2023/10/03 15:40:55;;;;;;;5.50;3.03;;;;;;;;;;4395025;32;70581;-73
2023/10/03 15:43:45;;;;;;;6.07;3.83;;;;;;;;;;4406457;32;64687;-75
2023/10/03 15:46:34;;;;;;;8.60;3.75;;;;;;;;;;4408649;32;69266;-73
2023/10/03 15:49:23;;;;;;;6.87;3.35;;;;;;;;;;4395235;32;68200;-74
2023/10/03 15:52:10;;;;;;;6.90;3.78;;;;;;;;;;4395030;32;73078;-72
2023/10/03 15:54:59;;;;;;;6.82;3.87;;;;;;;;;;4405237;32;66888;-73
2023/10/03 15:57:45;;;;;;;8.48;4.57;;;;;;;;;;4393577;32;67907;-73
2023/10/03 16:00:32;;;;;;;;;;;;;;;;;;4396070;32;59665;-72
2023/10/03 16:03:20;;;;;;;8.35;4.00;;;;;;;;;;4394036;32;71198;-72
2023/10/03 16:06:08;;;;;;;9.15;3.95;;;;;;;;;;4390023;32;69219;-72
2023/10/03 16:08:56;;;;;;;7.43;3.78;;;;;;;;;;4384282;32;66477;-73
2023/10/03 16:11:46;;;;;;;7.53;3.70;;;;;;;;;;4359069;32;62601;-73
2023/10/03 16:14:33;;;;;;;10.18;4.07;;;;;;;;;;4353609;32;70409;-73
2023/10/03 16:17:19;;;;;;;7.15;4.20;;;;;;;;;;4361901;32;69130;-73
2023/10/03 16:20:09;;;;;;;8.25;3.97;;;;;;;;;;4363808;32;66052;-73
2023/10/03 16:22:56;;;;;;;7.12;3.65;;;;;;;;;;4353764;32;71475;-74
2023/10/03 16:25:46;;;;;;;11.07;5.03;;;;;;;;;;4344236;32;65061;-74
2023/10/03 16:28:32;;;;;;;9.75;4.22;;;;;;;;;;4353780;32;68197;-72
2023/10/03 16:31:19;;;;;;;;;;;;;;;;;;4353709;32;59044;-72
2023/10/03 16:34:05;;;;;;;8.43;4.37;;;;;;;;;;4353456;32;69996;-73
2023/10/03 16:42:17;;;;;;;7.03;4.35;;;;;;;;;;3865156;36;43625;-73
2023/10/03 16:45:04;;;;;;;7.40;4.32;;;;;;;;;;4407690;32;59851;-73
2023/10/03 16:47:51;;;;;;;8.90;4.35;;;;;;;;;;4399431;32;69430;-72
2023/10/03 16:50:38;;;;;;;9.05;4.28;;;;;;;;;;4385809;32;69761;-72
2023/10/03 16:53:25;;;;;;;8.50;4.25;;;;;;;;;;4388869;32;67990;-72
2023/10/03 16:56:12;;;;;;;11.23;4.30;;;;;;;;;;4375343;32;71287;-73
2023/10/03 16:58:59;;;;;;;7.15;4.40;;;;;;;;;;4410307;32;65993;-72
2023/10/03 17:01:47;;;;;;;9.18;4.97;;;;;;;;;;4389150;32;67939;-73
2023/10/03 17:04:46;;;;;;;7.25;3.75;;;;;;;;;;3864931;36;43641;-72
2023/10/03 17:07:33;;;;;;;6.72;3.92;;;;;;;;;;4422696;32;59202;-73
2023/10/03 17:10:19;;;;;;;;;;;;;;;;;;4398948;32;70131;-72